sensor_id;sensor_type;location;lat;lon;timestamp;P1;durP1;ratioP1;P2;durP2;ratioP2
22937;SDS011;11634;42.734;23.298;2023-11-19T00:01:18;3.30;;;3.00;;
22937;SDS011;11634;42.734;23.298;2023-11-19T00:03:44;3.17;;;2.53;;
22937;SDS011;11634;42.734;23.298;2023-11-19T00:06:10;3.15;;;2.85;;
22937;SDS011;11634;42.734;23.298;2023-11-19T00:08:36;4.53;;;2.90;;
22937;SDS011;11634;42.734;23.298;2023-11-19T00:11:02;3.27;;;2.20;;
22937;SDS011;11634;42.734;23.298;2023-11-19T00:13:47;2.27;;;2.07;;
22937;SDS011;11634;42.734;23.298;2023-11-19T00:16:48;2.83;;;2.40;;
22937;SDS011;11634;42.734;23.298;2023-11-19T00:19:19;3.77;;;2.77;;
22937;SDS011;11634;42.734;23.298;2023-11-19T00:21:45;5.03;;;3.20;;
22937;SDS011;11634;42.734;23.298;2023-11-19T00:24:12;2.73;;;2.53;;
22937;SDS011;11634;42.734;23.298;2023-11-19T00:26:52;2.40;;;2.20;;
22937;SDS011;11634;42.734;23.298;2023-11-19T00:29:19;3.40;;;3.10;;
22937;SDS011;11634;42.734;23.298;2023-11-19T00:39:01;2.60;;;2.40;;
22937;SDS011;11634;42.734;23.298;2023-11-19T00:42:38;3.00;;;2.73;;
22937;SDS011;11634;42.734;23.298;2023-11-19T00:45:08;5.05;;;2.97;;
22937;SDS011;11634;42.734;23.298;2023-11-19T00:47:35;4.63;;;2.70;;
22937;SDS011;11634;42.734;23.298;2023-11-19T01:01:30;3.03;;;2.53;;
22937;SDS011;11634;42.734;23.298;2023-11-19T01:11:43;3.53;;;2.47;;
22937;SDS011;11634;42.734;23.298;2023-11-19T01:15:11;2.77;;;2.57;;
22937;SDS011;11634;42.734;23.298;2023-11-19T01:17:52;3.50;;;1.97;;
22937;SDS011;11634;42.734;23.298;2023-11-19T01:20:19;2.27;;;2.07;;
22937;SDS011;11634;42.734;23.298;2023-11-19T01:22:51;2.60;;;2.40;;
22937;SDS011;11634;42.734;23.298;2023-11-19T01:25:27;2.70;;;2.37;;
22937;SDS011;11634;42.734;23.298;2023-11-19T01:28:18;2.80;;;2.50;;
22937;SDS011;11634;42.734;23.298;2023-11-19T01:31:15;2.60;;;2.40;;
22937;SDS011;11634;42.734;23.298;2023-11-19T01:34:20;3.80;;;2.80;;
22937;SDS011;11634;42.734;23.298;2023-11-19T01:36:47;3.03;;;2.53;;
22937;SDS011;11634;42.734;23.298;2023-11-19T01:39:16;2.67;;;2.30;;
22937;SDS011;11634;42.734;23.298;2023-11-19T01:41:47;2.50;;;2.00;;
22937;SDS011;11634;42.734;23.298;2023-11-19T01:44:14;3.03;;;2.73;;
22937;SDS011;11634;42.734;23.298;2023-11-19T01:46:40;2.63;;;2.30;;
22937;SDS011;11634;42.734;23.298;2023-11-19T01:49:09;2.60;;;2.40;;
22937;SDS011;11634;42.734;23.298;2023-11-19T01:51:37;3.93;;;2.70;;
22937;SDS011;11634;42.734;23.298;2023-11-19T01:54:05;3.07;;;2.50;;
22937;SDS011;11634;42.734;23.298;2023-11-19T01:56:32;2.50;;;2.30;;
22937;SDS011;11634;42.734;23.298;2023-11-19T01:58:59;2.70;;;2.50;;
22937;SDS011;11634;42.734;23.298;2023-11-19T02:01:26;2.70;;;2.50;;
22937;SDS011;11634;42.734;23.298;2023-11-19T02:03:55;2.40;;;2.20;;
22937;SDS011;11634;42.734;23.298;2023-11-19T02:06:21;2.67;;;2.47;;
22937;SDS011;11634;42.734;23.298;2023-11-19T02:08:46;2.83;;;2.50;;
22937;SDS011;11634;42.734;23.298;2023-11-19T02:11:12;2.40;;;2.20;;
22937;SDS011;11634;42.734;23.298;2023-11-19T02:13:38;2.57;;;2.37;;
22937;SDS011;11634;42.734;23.298;2023-11-19T02:20:06;3.77;;;2.77;;
22937;SDS011;11634;42.734;23.298;2023-11-19T02:22:46;2.80;;;2.60;;
22937;SDS011;11634;42.734;23.298;2023-11-19T02:30:26;3.00;;;2.70;;
22937;SDS011;11634;42.734;23.298;2023-11-19T02:33:45;3.63;;;2.70;;
22937;SDS011;11634;42.734;23.298;2023-11-19T02:36:20;4.17;;;2.60;;
22937;SDS011;11634;42.734;23.298;2023-11-19T03:21:00;2.70;;;2.50;;
22937;SDS011;11634;42.734;23.298;2023-11-19T03:23:33;2.27;;;2.07;;
22937;SDS011;11634;42.734;23.298;2023-11-19T03:26:12;2.50;;;2.30;;
22937;SDS011;11634;42.734;23.298;2023-11-19T03:28:50;2.30;;;2.07;;
22937;SDS011;11634;42.734;23.298;2023-11-19T03:31:16;2.83;;;2.57;;
22937;SDS011;11634;42.734;23.298;2023-11-19T03:33:43;3.40;;;2.57;;
22937;SDS011;11634;42.734;23.298;2023-11-19T03:36:14;3.17;;;2.87;;
22937;SDS011;11634;42.734;23.298;2023-11-19T03:38:40;3.43;;;2.70;;
22937;SDS011;11634;42.734;23.298;2023-11-19T03:41:15;2.53;;;2.00;;
22937;SDS011;11634;42.734;23.298;2023-11-19T03:43:42;2.57;;;2.30;;
22937;SDS011;11634;42.734;23.298;2023-11-19T03:46:20;3.17;;;2.67;;
22937;SDS011;11634;42.734;23.298;2023-11-19T03:48:48;2.60;;;2.37;;
22937;SDS011;11634;42.734;23.298;2023-11-19T03:51:14;2.60;;;2.40;;
22937;SDS011;11634;42.734;23.298;2023-11-19T03:53:49;2.30;;;2.10;;
22937;SDS011;11634;42.734;23.298;2023-11-19T03:56:15;1.73;;;1.63;;
22937;SDS011;11634;42.734;23.298;2023-11-19T04:01:47;2.20;;;2.00;;
22937;SDS011;11634;42.734;23.298;2023-11-19T04:04:18;2.57;;;2.00;;
22937;SDS011;11634;42.734;23.298;2023-11-19T04:12:29;2.93;;;2.50;;
22937;SDS011;11634;42.734;23.298;2023-11-19T04:30:46;4.27;;;2.60;;
22937;SDS011;11634;42.734;23.298;2023-11-19T04:34:55;4.10;;;3.47;;
22937;SDS011;11634;42.734;23.298;2023-11-19T04:38:48;3.53;;;2.73;;
22937;SDS011;11634;42.734;23.298;2023-11-19T04:45:33;3.67;;;3.30;;
22937;SDS011;11634;42.734;23.298;2023-11-19T04:47:59;3.43;;;3.13;;
22937;SDS011;11634;42.734;23.298;2023-11-19T04:50:26;4.33;;;3.13;;
22937;SDS011;11634;42.734;23.298;2023-11-19T04:52:53;9.47;;;5.60;;
22937;SDS011;11634;42.734;23.298;2023-11-19T04:55:19;8.17;;;4.57;;
22937;SDS011;11634;42.734;23.298;2023-11-19T04:57:44;4.53;;;4.07;;
22937;SDS011;11634;42.734;23.298;2023-11-19T05:00:10;4.13;;;3.63;;
22937;SDS011;11634;42.734;23.298;2023-11-19T05:02:36;5.00;;;4.03;;
22937;SDS011;11634;42.734;23.298;2023-11-19T05:05:02;3.80;;;3.20;;
22937;SDS011;11634;42.734;23.298;2023-11-19T05:07:47;6.70;;;5.07;;
22937;SDS011;11634;42.734;23.298;2023-11-19T05:10:18;6.80;;;4.90;;
22937;SDS011;11634;42.734;23.298;2023-11-19T05:12:43;4.10;;;3.40;;
22937;SDS011;11634;42.734;23.298;2023-11-19T05:18:03;4.33;;;3.60;;
22937;SDS011;11634;42.734;23.298;2023-11-19T05:20:37;4.90;;;3.73;;
22937;SDS011;11634;42.734;23.298;2023-11-19T05:23:09;4.67;;;3.90;;
22937;SDS011;11634;42.734;23.298;2023-11-19T05:25:36;3.63;;;3.10;;
22937;SDS011;11634;42.734;23.298;2023-11-19T05:28:02;3.40;;;3.10;;
22937;SDS011;11634;42.734;23.298;2023-11-19T05:30:27;3.10;;;2.80;;
22937;SDS011;11634;42.734;23.298;2023-11-19T05:32:54;4.07;;;3.67;;
22937;SDS011;11634;42.734;23.298;2023-11-19T05:35:20;2.60;;;2.40;;
22937;SDS011;11634;42.734;23.298;2023-11-19T05:37:57;3.40;;;2.77;;
22937;SDS011;11634;42.734;23.298;2023-11-19T05:40:23;5.43;;;3.03;;
22937;SDS011;11634;42.734;23.298;2023-11-19T05:42:49;4.80;;;3.40;;
22937;SDS011;11634;42.734;23.298;2023-11-19T05:45:14;3.90;;;3.07;;
22937;SDS011;11634;42.734;23.298;2023-11-19T05:47:40;4.63;;;3.63;;
22937;SDS011;11634;42.734;23.298;2023-11-19T05:50:06;3.50;;;3.20;;
22937;SDS011;11634;42.734;23.298;2023-11-19T05:52:33;2.60;;;2.40;;
22937;SDS011;11634;42.734;23.298;2023-11-19T05:55:08;4.43;;;3.10;;
22937;SDS011;11634;42.734;23.298;2023-11-19T05:57:37;2.73;;;2.50;;
22937;SDS011;11634;42.734;23.298;2023-11-19T06:00:05;3.17;;;2.80;;
22937;SDS011;11634;42.734;23.298;2023-11-19T06:02:36;4.20;;;3.80;;
22937;SDS011;11634;42.734;23.298;2023-11-19T06:05:03;3.67;;;3.37;;
22937;SDS011;11634;42.734;23.298;2023-11-19T06:07:33;3.57;;;2.90;;
22937;SDS011;11634;42.734;23.298;2023-11-19T06:09:58;3.50;;;3.20;;
22937;SDS011;11634;42.734;23.298;2023-11-19T06:12:24;3.17;;;2.87;;
22937;SDS011;11634;42.734;23.298;2023-11-19T06:14:50;3.57;;;3.20;;
22937;SDS011;11634;42.734;23.298;2023-11-19T06:17:26;4.30;;;3.33;;
22937;SDS011;11634;42.734;23.298;2023-11-19T06:20:00;4.00;;;3.60;;
22937;SDS011;11634;42.734;23.298;2023-11-19T06:22:27;4.33;;;3.77;;
22937;SDS011;11634;42.734;23.298;2023-11-19T06:24:53;3.83;;;3.43;;
22937;SDS011;11634;42.734;23.298;2023-11-19T06:27:20;3.77;;;3.27;;
22937;SDS011;11634;42.734;23.298;2023-11-19T06:29:47;2.97;;;2.70;;
22937;SDS011;11634;42.734;23.298;2023-11-19T06:32:13;5.50;;;3.53;;
22937;SDS011;11634;42.734;23.298;2023-11-19T06:34:38;5.33;;;3.60;;
22937;SDS011;11634;42.734;23.298;2023-11-19T06:37:06;4.03;;;3.50;;
22937;SDS011;11634;42.734;23.298;2023-11-19T06:39:34;4.13;;;3.20;;
22937;SDS011;11634;42.734;23.298;2023-11-19T06:42:01;4.17;;;3.20;;
22937;SDS011;11634;42.734;23.298;2023-11-19T06:44:26;4.37;;;3.63;;
22937;SDS011;11634;42.734;23.298;2023-11-19T06:46:52;6.27;;;3.60;;
22937;SDS011;11634;42.734;23.298;2023-11-19T06:49:19;4.60;;;3.83;;
22937;SDS011;11634;42.734;23.298;2023-11-19T06:51:44;4.13;;;3.73;;
22937;SDS011;11634;42.734;23.298;2023-11-19T06:54:11;4.17;;;3.33;;
22937;SDS011;11634;42.734;23.298;2023-11-19T06:56:37;4.93;;;3.90;;
22937;SDS011;11634;42.734;23.298;2023-11-19T06:59:02;5.03;;;4.30;;
22937;SDS011;11634;42.734;23.298;2023-11-19T07:01:29;3.70;;;3.30;;
22937;SDS011;11634;42.734;23.298;2023-11-19T07:04:00;4.03;;;3.40;;
22937;SDS011;11634;42.734;23.298;2023-11-19T07:06:27;3.27;;;2.57;;
22937;SDS011;11634;42.734;23.298;2023-11-19T07:08:54;4.00;;;3.10;;
22937;SDS011;11634;42.734;23.298;2023-11-19T07:11:19;3.27;;;2.97;;
22937;SDS011;11634;42.734;23.298;2023-11-19T07:13:51;3.20;;;2.90;;
22937;SDS011;11634;42.734;23.298;2023-11-19T07:16:25;4.13;;;3.30;;
22937;SDS011;11634;42.734;23.298;2023-11-19T07:18:51;3.93;;;3.50;;
22937;SDS011;11634;42.734;23.298;2023-11-19T07:21:17;4.93;;;3.67;;
22937;SDS011;11634;42.734;23.298;2023-11-19T07:23:45;4.20;;;3.80;;
22937;SDS011;11634;42.734;23.298;2023-11-19T07:26:12;4.47;;;3.87;;
22937;SDS011;11634;42.734;23.298;2023-11-19T07:28:37;4.27;;;3.87;;
22937;SDS011;11634;42.734;23.298;2023-11-19T07:31:33;4.40;;;3.47;;
22937;SDS011;11634;42.734;23.298;2023-11-19T07:33:59;3.80;;;3.43;;
22937;SDS011;11634;42.734;23.298;2023-11-19T07:36:24;5.10;;;4.53;;
22937;SDS011;11634;42.734;23.298;2023-11-19T07:38:50;4.10;;;3.70;;
22937;SDS011;11634;42.734;23.298;2023-11-19T07:41:16;5.47;;;4.40;;
22937;SDS011;11634;42.734;23.298;2023-11-19T07:43:44;4.67;;;3.90;;
22937;SDS011;11634;42.734;23.298;2023-11-19T07:46:10;6.00;;;4.37;;
22937;SDS011;11634;42.734;23.298;2023-11-19T07:48:38;4.50;;;3.97;;
22937;SDS011;11634;42.734;23.298;2023-11-19T07:51:07;5.13;;;4.10;;
22937;SDS011;11634;42.734;23.298;2023-11-19T07:53:33;6.17;;;5.27;;
22937;SDS011;11634;42.734;23.298;2023-11-19T07:55:59;6.67;;;4.47;;
22937;SDS011;11634;42.734;23.298;2023-11-19T07:58:25;5.03;;;4.43;;
22937;SDS011;11634;42.734;23.298;2023-11-19T08:01:13;8.17;;;6.00;;
22937;SDS011;11634;42.734;23.298;2023-11-19T08:03:38;5.33;;;4.80;;
22937;SDS011;11634;42.734;23.298;2023-11-19T08:06:08;6.83;;;6.13;;
22937;SDS011;11634;42.734;23.298;2023-11-19T08:08:34;4.77;;;4.23;;
22937;SDS011;11634;42.734;23.298;2023-11-19T08:11:00;5.27;;;4.00;;
22937;SDS011;11634;42.734;23.298;2023-11-19T08:13:26;3.60;;;3.00;;
22937;SDS011;11634;42.734;23.298;2023-11-19T08:15:52;4.60;;;4.00;;
22937;SDS011;11634;42.734;23.298;2023-11-19T08:18:21;3.53;;;3.10;;
22937;SDS011;11634;42.734;23.298;2023-11-19T08:20:46;3.97;;;3.57;;
22937;SDS011;11634;42.734;23.298;2023-11-19T08:23:17;4.10;;;3.40;;
22937;SDS011;11634;42.734;23.298;2023-11-19T08:25:43;3.20;;;2.90;;
22937;SDS011;11634;42.734;23.298;2023-11-19T08:28:11;6.33;;;3.23;;
22937;SDS011;11634;42.734;23.298;2023-11-19T08:30:37;3.40;;;2.97;;
22937;SDS011;11634;42.734;23.298;2023-11-19T08:33:03;4.00;;;3.33;;
22937;SDS011;11634;42.734;23.298;2023-11-19T08:35:31;3.53;;;3.23;;
22937;SDS011;11634;42.734;23.298;2023-11-19T08:37:58;4.23;;;3.83;;
22937;SDS011;11634;42.734;23.298;2023-11-19T08:40:24;4.47;;;3.30;;
22937;SDS011;11634;42.734;23.298;2023-11-19T08:42:51;4.67;;;4.27;;
22937;SDS011;11634;42.734;23.298;2023-11-19T08:45:17;3.47;;;3.13;;
22937;SDS011;11634;42.734;23.298;2023-11-19T08:47:42;4.30;;;3.77;;
22937;SDS011;11634;42.734;23.298;2023-11-19T08:50:19;4.43;;;3.40;;
22937;SDS011;11634;42.734;23.298;2023-11-19T08:52:51;3.70;;;3.10;;
22937;SDS011;11634;42.734;23.298;2023-11-19T08:55:17;3.30;;;3.00;;
22937;SDS011;11634;42.734;23.298;2023-11-19T08:57:43;5.10;;;3.70;;
22937;SDS011;11634;42.734;23.298;2023-11-19T09:00:08;3.77;;;3.47;;
22937;SDS011;11634;42.734;23.298;2023-11-19T09:02:35;3.40;;;3.10;;
22937;SDS011;11634;42.734;23.298;2023-11-19T09:05:05;4.13;;;3.07;;
22937;SDS011;11634;42.734;23.298;2023-11-19T09:07:33;3.63;;;3.33;;
22937;SDS011;11634;42.734;23.298;2023-11-19T09:10:01;4.50;;;2.80;;
22937;SDS011;11634;42.734;23.298;2023-11-19T09:12:29;4.90;;;3.27;;
22937;SDS011;11634;42.734;23.298;2023-11-19T09:14:58;4.07;;;2.53;;
22937;SDS011;11634;42.734;23.298;2023-11-19T09:17:23;4.17;;;3.50;;
22937;SDS011;11634;42.734;23.298;2023-11-19T09:19:49;4.87;;;3.97;;
22937;SDS011;11634;42.734;23.298;2023-11-19T09:22:14;3.90;;;3.30;;
22937;SDS011;11634;42.734;23.298;2023-11-19T09:24:40;4.37;;;3.40;;
22937;SDS011;11634;42.734;23.298;2023-11-19T09:27:06;4.03;;;3.60;;
22937;SDS011;11634;42.734;23.298;2023-11-19T09:29:32;5.50;;;3.50;;
22937;SDS011;11634;42.734;23.298;2023-11-19T09:31:58;3.80;;;3.00;;
22937;SDS011;11634;42.734;23.298;2023-11-19T09:34:23;3.13;;;2.93;;
22937;SDS011;11634;42.734;23.298;2023-11-19T09:36:49;3.37;;;3.00;;
22937;SDS011;11634;42.734;23.298;2023-11-19T09:39:15;4.23;;;3.83;;
22937;SDS011;11634;42.734;23.298;2023-11-19T09:41:44;4.27;;;3.40;;
22937;SDS011;11634;42.734;23.298;2023-11-19T09:44:10;5.27;;;3.70;;
22937;SDS011;11634;42.734;23.298;2023-11-19T09:46:40;3.43;;;2.57;;
22937;SDS011;11634;42.734;23.298;2023-11-19T09:49:07;3.57;;;3.27;;
22937;SDS011;11634;42.734;23.298;2023-11-19T09:51:35;3.20;;;2.90;;
22937;SDS011;11634;42.734;23.298;2023-11-19T09:54:03;3.83;;;3.00;;
22937;SDS011;11634;42.734;23.298;2023-11-19T09:56:32;5.27;;;4.17;;
22937;SDS011;11634;42.734;23.298;2023-11-19T09:59:00;4.38;;;3.63;;
22937;SDS011;11634;42.734;23.298;2023-11-19T10:01:27;3.60;;;3.20;;
22937;SDS011;11634;42.734;23.298;2023-11-19T10:03:52;4.27;;;3.10;;
22937;SDS011;11634;42.734;23.298;2023-11-19T10:06:21;3.05;;;2.75;;
22937;SDS011;11634;42.734;23.298;2023-11-19T10:08:47;3.23;;;2.80;;
22937;SDS011;11634;42.734;23.298;2023-11-19T10:11:13;3.67;;;3.10;;
22937;SDS011;11634;42.734;23.298;2023-11-19T10:13:40;3.08;;;2.28;;
22937;SDS011;11634;42.734;23.298;2023-11-19T10:16:14;4.45;;;2.80;;
22937;SDS011;11634;42.734;23.298;2023-11-19T10:18:46;2.90;;;2.40;;
22937;SDS011;11634;42.734;23.298;2023-11-19T10:21:13;3.10;;;2.50;;
22937;SDS011;11634;42.734;23.298;2023-11-19T10:23:49;3.58;;;3.20;;
22937;SDS011;11634;42.734;23.298;2023-11-19T10:26:19;2.88;;;2.50;;
22937;SDS011;11634;42.734;23.298;2023-11-19T10:28:49;2.40;;;2.20;;
22937;SDS011;11634;42.734;23.298;2023-11-19T10:31:15;3.27;;;2.43;;
22937;SDS011;11634;42.734;23.298;2023-11-19T10:33:42;3.20;;;2.73;;
22937;SDS011;11634;42.734;23.298;2023-11-19T10:36:11;3.17;;;2.47;;
22937;SDS011;11634;42.734;23.298;2023-11-19T10:38:37;3.65;;;2.40;;
22937;SDS011;11634;42.734;23.298;2023-11-19T10:41:04;4.10;;;2.78;;
22937;SDS011;11634;42.734;23.298;2023-11-19T10:43:30;3.03;;;2.53;;
22937;SDS011;11634;42.734;23.298;2023-11-19T10:46:09;3.22;;;2.92;;
22937;SDS011;11634;42.734;23.298;2023-11-19T10:48:38;7.00;;;2.72;;
22937;SDS011;11634;42.734;23.298;2023-11-19T10:51:05;3.33;;;3.03;;
22937;SDS011;11634;42.734;23.298;2023-11-19T10:53:36;4.00;;;3.00;;
22937;SDS011;11634;42.734;23.298;2023-11-19T10:56:11;4.05;;;2.75;;
22937;SDS011;11634;42.734;23.298;2023-11-19T10:58:59;2.90;;;2.60;;
22937;SDS011;11634;42.734;23.298;2023-11-19T11:01:34;4.60;;;2.60;;
22937;SDS011;11634;42.734;23.298;2023-11-19T11:04:13;2.65;;;2.45;;
22937;SDS011;11634;42.734;23.298;2023-11-19T11:06:42;2.53;;;2.30;;
22937;SDS011;11634;42.734;23.298;2023-11-19T11:09:16;2.55;;;2.35;;
22937;SDS011;11634;42.734;23.298;2023-11-19T11:11:46;3.10;;;2.05;;
22937;SDS011;11634;42.734;23.298;2023-11-19T11:14:13;3.80;;;3.13;;
22937;SDS011;11634;42.734;23.298;2023-11-19T11:16:42;3.73;;;2.33;;
22937;SDS011;11634;42.734;23.298;2023-11-19T11:19:10;3.43;;;2.73;;
22937;SDS011;11634;42.734;23.298;2023-11-19T11:21:37;4.27;;;2.90;;
22937;SDS011;11634;42.734;23.298;2023-11-19T11:29:59;4.55;;;3.50;;
22937;SDS011;11634;42.734;23.298;2023-11-19T11:37:32;4.22;;;2.83;;
22937;SDS011;11634;42.734;23.298;2023-11-19T11:40:01;4.37;;;3.20;;
22937;SDS011;11634;42.734;23.298;2023-11-19T11:42:36;2.93;;;2.63;;
22937;SDS011;11634;42.734;23.298;2023-11-19T11:45:08;5.57;;;2.95;;
22937;SDS011;11634;42.734;23.298;2023-11-19T11:50:08;3.92;;;3.30;;
22937;SDS011;11634;42.734;23.298;2023-11-19T11:57:51;4.40;;;3.28;;
22937;SDS011;11634;42.734;23.298;2023-11-19T12:00:27;3.88;;;2.63;;
22937;SDS011;11634;42.734;23.298;2023-11-19T12:03:01;2.58;;;2.22;;
22937;SDS011;11634;42.734;23.298;2023-11-19T12:05:27;2.47;;;2.28;;
22937;SDS011;11634;42.734;23.298;2023-11-19T12:08:01;4.63;;;3.00;;
22937;SDS011;11634;42.734;23.298;2023-11-19T12:10:30;3.60;;;3.25;;
22937;SDS011;11634;42.734;23.298;2023-11-19T12:13:00;3.38;;;2.75;;
22937;SDS011;11634;42.734;23.298;2023-11-19T12:15:27;2.50;;;2.30;;
22937;SDS011;11634;42.734;23.298;2023-11-19T12:17:56;3.90;;;2.67;;
22937;SDS011;11634;42.734;23.298;2023-11-19T12:20:22;2.83;;;2.50;;
22937;SDS011;11634;42.734;23.298;2023-11-19T12:23:00;3.10;;;2.50;;
22937;SDS011;11634;42.734;23.298;2023-11-19T12:25:30;3.65;;;2.97;;
22937;SDS011;11634;42.734;23.298;2023-11-19T12:28:00;3.10;;;2.20;;
22937;SDS011;11634;42.734;23.298;2023-11-19T12:30:29;2.63;;;2.42;;
22937;SDS011;11634;42.734;23.298;2023-11-19T12:32:55;3.00;;;2.40;;
22937;SDS011;11634;42.734;23.298;2023-11-19T12:35:21;2.47;;;2.28;;
22937;SDS011;11634;42.734;23.298;2023-11-19T12:37:50;3.22;;;2.92;;
22937;SDS011;11634;42.734;23.298;2023-11-19T12:42:50;3.17;;;2.22;;
22937;SDS011;11634;42.734;23.298;2023-11-19T12:45:17;2.83;;;2.55;;
22937;SDS011;11634;42.734;23.298;2023-11-19T12:47:44;4.22;;;3.83;;
22937;SDS011;11634;42.734;23.298;2023-11-19T12:50:12;3.22;;;2.35;;
22937;SDS011;11634;42.734;23.298;2023-11-19T12:52:38;2.58;;;2.38;;
22937;SDS011;11634;42.734;23.298;2023-11-19T12:55:05;3.75;;;3.05;;
22937;SDS011;11634;42.734;23.298;2023-11-19T12:57:49;2.63;;;2.42;;
22937;SDS011;11634;42.734;23.298;2023-11-19T13:00:18;3.00;;;2.70;;
22937;SDS011;11634;42.734;23.298;2023-11-19T13:02:49;3.67;;;3.13;;
22937;SDS011;11634;42.734;23.298;2023-11-19T13:08:03;3.95;;;3.55;;
22937;SDS011;11634;42.734;23.298;2023-11-19T13:10:34;3.95;;;3.55;;
22937;SDS011;11634;42.734;23.298;2023-11-19T13:13:24;4.00;;;3.63;;
22937;SDS011;11634;42.734;23.298;2023-11-19T13:15:50;3.83;;;3.42;;
22937;SDS011;11634;42.734;23.298;2023-11-19T13:18:16;4.03;;;3.63;;
22937;SDS011;11634;42.734;23.298;2023-11-19T13:20:41;5.00;;;3.97;;
22937;SDS011;11634;42.734;23.298;2023-11-19T13:23:08;4.30;;;3.65;;
22937;SDS011;11634;42.734;23.298;2023-11-19T13:25:34;5.05;;;3.67;;
22937;SDS011;11634;42.734;23.298;2023-11-19T13:28:03;3.90;;;3.50;;
22937;SDS011;11634;42.734;23.298;2023-11-19T13:30:29;4.35;;;3.38;;
22937;SDS011;11634;42.734;23.298;2023-11-19T13:32:54;3.38;;;3.08;;
22937;SDS011;11634;42.734;23.298;2023-11-19T13:35:21;3.28;;;2.97;;
22937;SDS011;11634;42.734;23.298;2023-11-19T13:37:50;3.03;;;2.72;;
22937;SDS011;11634;42.734;23.298;2023-11-19T13:40:16;3.38;;;3.08;;
22937;SDS011;11634;42.734;23.298;2023-11-19T13:42:43;4.60;;;2.85;;
22937;SDS011;11634;42.734;23.298;2023-11-19T13:45:12;4.22;;;3.50;;
22937;SDS011;11634;42.734;23.298;2023-11-19T13:47:42;4.22;;;3.47;;
22937;SDS011;11634;42.734;23.298;2023-11-19T13:50:09;3.33;;;2.92;;
22937;SDS011;11634;42.734;23.298;2023-11-19T13:52:46;3.55;;;2.70;;
22937;SDS011;11634;42.734;23.298;2023-11-19T13:55:12;3.35;;;2.90;;
22937;SDS011;11634;42.734;23.298;2023-11-19T13:57:39;4.53;;;3.10;;
22937;SDS011;11634;42.734;23.298;2023-11-19T14:00:05;3.72;;;3.30;;
22937;SDS011;11634;42.734;23.298;2023-11-19T14:02:44;4.53;;;2.88;;
22937;SDS011;11634;42.734;23.298;2023-11-19T14:05:12;4.18;;;3.30;;
22937;SDS011;11634;42.734;23.298;2023-11-19T14:07:39;3.90;;;2.78;;
22937;SDS011;11634;42.734;23.298;2023-11-19T14:10:05;4.97;;;3.53;;
22937;SDS011;11634;42.734;23.298;2023-11-19T14:12:34;3.92;;;2.83;;
22937;SDS011;11634;42.734;23.298;2023-11-19T14:15:04;4.35;;;3.58;;
22937;SDS011;11634;42.734;23.298;2023-11-19T14:17:31;5.47;;;3.20;;
22937;SDS011;11634;42.734;23.298;2023-11-19T14:19:59;4.05;;;3.45;;
22937;SDS011;11634;42.734;23.298;2023-11-19T14:22:25;4.88;;;3.70;;
22937;SDS011;11634;42.734;23.298;2023-11-19T14:24:50;4.22;;;3.40;;
22937;SDS011;11634;42.734;23.298;2023-11-19T14:27:16;4.43;;;3.53;;
22937;SDS011;11634;42.734;23.298;2023-11-19T14:29:45;5.03;;;4.03;;
22937;SDS011;11634;42.734;23.298;2023-11-19T14:32:10;5.00;;;3.85;;
22937;SDS011;11634;42.734;23.298;2023-11-19T14:34:36;4.68;;;4.10;;
22937;SDS011;11634;42.734;23.298;2023-11-19T14:37:11;4.40;;;4.00;;
22937;SDS011;11634;42.734;23.298;2023-11-19T14:39:42;8.40;;;4.28;;
22937;SDS011;11634;42.734;23.298;2023-11-19T14:42:09;7.03;;;4.13;;
22937;SDS011;11634;42.734;23.298;2023-11-19T14:44:35;7.82;;;4.28;;
22937;SDS011;11634;42.734;23.298;2023-11-19T14:47:04;4.50;;;3.58;;
22937;SDS011;11634;42.734;23.298;2023-11-19T14:49:36;4.53;;;3.65;;
22937;SDS011;11634;42.734;23.298;2023-11-19T14:52:06;7.03;;;4.28;;
22937;SDS011;11634;42.734;23.298;2023-11-19T14:54:33;4.30;;;3.70;;
22937;SDS011;11634;42.734;23.298;2023-11-19T14:56:59;4.55;;;3.90;;
22937;SDS011;11634;42.734;23.298;2023-11-19T14:59:34;7.40;;;3.90;;
22937;SDS011;11634;42.734;23.298;2023-11-19T15:02:06;4.47;;;3.92;;
22937;SDS011;11634;42.734;23.298;2023-11-19T15:04:31;8.73;;;4.47;;
22937;SDS011;11634;42.734;23.298;2023-11-19T15:06:57;4.20;;;3.50;;
22937;SDS011;11634;42.734;23.298;2023-11-19T15:09:23;5.00;;;3.92;;
22937;SDS011;11634;42.734;23.298;2023-11-19T15:11:49;5.47;;;4.60;;
22937;SDS011;11634;42.734;23.298;2023-11-19T15:14:15;6.35;;;4.60;;
22937;SDS011;11634;42.734;23.298;2023-11-19T15:16:42;6.28;;;4.18;;
22937;SDS011;11634;42.734;23.298;2023-11-19T15:19:08;5.75;;;4.28;;
22937;SDS011;11634;42.734;23.298;2023-11-19T15:21:34;6.82;;;4.72;;
22937;SDS011;11634;42.734;23.298;2023-11-19T15:24:03;6.00;;;5.00;;
22937;SDS011;11634;42.734;23.298;2023-11-19T15:26:32;11.02;;;7.15;;
22937;SDS011;11634;42.734;23.298;2023-11-19T15:28:59;13.80;;;8.30;;
22937;SDS011;11634;42.734;23.298;2023-11-19T15:31:25;7.80;;;5.80;;
22937;SDS011;11634;42.734;23.298;2023-11-19T15:33:50;9.75;;;5.90;;
22937;SDS011;11634;42.734;23.298;2023-11-19T15:36:19;8.38;;;6.50;;
22937;SDS011;11634;42.734;23.298;2023-11-19T15:38:45;8.52;;;5.70;;
22937;SDS011;11634;42.734;23.298;2023-11-19T15:41:14;11.32;;;7.68;;
22937;SDS011;11634;42.734;23.298;2023-11-19T15:43:42;11.73;;;7.80;;
22937;SDS011;11634;42.734;23.298;2023-11-19T15:46:08;13.35;;;8.88;;
22937;SDS011;11634;42.734;23.298;2023-11-19T15:48:34;7.43;;;6.40;;
22937;SDS011;11634;42.734;23.298;2023-11-19T15:51:00;9.13;;;7.47;;
22937;SDS011;11634;42.734;23.298;2023-11-19T15:53:27;8.52;;;6.72;;
22937;SDS011;11634;42.734;23.298;2023-11-19T15:55:53;8.15;;;7.10;;
22937;SDS011;11634;42.734;23.298;2023-11-19T15:58:19;9.32;;;7.82;;
22937;SDS011;11634;42.734;23.298;2023-11-19T16:00:47;12.18;;;8.82;;
22937;SDS011;11634;42.734;23.298;2023-11-19T16:03:13;10.32;;;7.57;;
22937;SDS011;11634;42.734;23.298;2023-11-19T16:05:39;10.43;;;7.57;;
22937;SDS011;11634;42.734;23.298;2023-11-19T16:08:05;11.75;;;9.15;;
22937;SDS011;11634;42.734;23.298;2023-11-19T16:10:33;14.00;;;8.82;;
22937;SDS011;11634;42.734;23.298;2023-11-19T16:12:58;11.45;;;8.10;;
22937;SDS011;11634;42.734;23.298;2023-11-19T16:15:24;8.90;;;6.67;;
22937;SDS011;11634;42.734;23.298;2023-11-19T16:17:50;11.07;;;7.72;;
22937;SDS011;11634;42.734;23.298;2023-11-19T16:20:16;11.50;;;8.90;;
22937;SDS011;11634;42.734;23.298;2023-11-19T16:22:41;13.68;;;9.40;;
22937;SDS011;11634;42.734;23.298;2023-11-19T16:25:10;9.68;;;7.18;;
22937;SDS011;11634;42.734;23.298;2023-11-19T16:27:37;10.57;;;7.20;;
22937;SDS011;11634;42.734;23.298;2023-11-19T16:30:05;10.30;;;6.97;;
22937;SDS011;11634;42.734;23.298;2023-11-19T16:32:31;9.43;;;7.28;;
22937;SDS011;11634;42.734;23.298;2023-11-19T16:34:57;14.23;;;9.07;;
22937;SDS011;11634;42.734;23.298;2023-11-19T16:37:22;18.95;;;13.55;;
22937;SDS011;11634;42.734;23.298;2023-11-19T16:39:48;9.52;;;7.00;;
22937;SDS011;11634;42.734;23.298;2023-11-19T16:42:14;10.85;;;7.25;;
22937;SDS011;11634;42.734;23.298;2023-11-19T16:44:40;13.98;;;11.07;;
22937;SDS011;11634;42.734;23.298;2023-11-19T16:47:06;11.30;;;9.00;;
22937;SDS011;11634;42.734;23.298;2023-11-19T16:49:32;8.02;;;6.90;;
22937;SDS011;11634;42.734;23.298;2023-11-19T16:51:58;6.40;;;5.22;;
22937;SDS011;11634;42.734;23.298;2023-11-19T16:54:24;6.95;;;5.25;;
22937;SDS011;11634;42.734;23.298;2023-11-19T16:56:50;8.45;;;4.90;;
22937;SDS011;11634;42.734;23.298;2023-11-19T16:59:15;6.60;;;4.95;;
22937;SDS011;11634;42.734;23.298;2023-11-19T17:01:42;7.43;;;6.35;;